createdAt,value
2022-08-28T00:00:29.553Z,101028.81
2022-08-28T00:02:56.788Z,101029.00
2022-08-28T00:05:26.347Z,101040.03
2022-08-28T00:07:53.082Z,101037.31
2022-08-28T00:10:22.609Z,101030.31
2022-08-28T00:12:50.482Z,101036.50
2022-08-28T00:15:22.006Z,101034.00
2022-08-28T00:17:49.022Z,101027.00
2022-08-28T00:20:18.562Z,101045.84
2022-08-28T00:22:45.393Z,101037.69
2022-08-28T00:25:13.503Z,101031.63
2022-08-28T00:27:55.599Z,101043.81
2022-08-28T00:30:29.844Z,101046.53
2022-08-28T00:32:59.851Z,101045.69
2022-08-28T00:35:27.635Z,101035.47
2022-08-28T00:37:57.488Z,101049.03
2022-08-28T00:40:28.859Z,101037.31
2022-08-28T00:43:00.267Z,101045.56
2022-08-28T00:45:27.548Z,101044.22
2022-08-28T00:47:54.280Z,101044.41
2022-08-28T00:50:25.492Z,101041.03
2022-08-28T00:52:57.749Z,101044.56
2022-08-28T00:55:26.519Z,101039.56
2022-08-28T00:57:56.480Z,101036.53
2022-08-28T01:00:35.107Z,101031.94
2022-08-28T01:03:02.964Z,101036.41
2022-08-28T01:05:29.821Z,101035.94
2022-08-28T01:07:58.697Z,101036.41
2022-08-28T01:10:27.125Z,101028.88
2022-08-28T01:12:56.222Z,101031.91
2022-08-28T01:15:28.335Z,101035.59
2022-08-28T01:18:05.934Z,101033.09
2022-08-28T01:20:37.734Z,101037.31
2022-08-28T01:23:25.024Z,101036.81
2022-08-28T01:25:52.486Z,101031.25
2022-08-28T01:28:19.027Z,101033.97
2022-08-28T01:30:47.759Z,101038.97
2022-08-28T01:33:17.504Z,101042.66
2022-08-28T01:35:47.469Z,101038.97
2022-08-28T01:38:21.458Z,101043.34
2022-08-28T01:40:54.546Z,101043.47
2022-08-28T01:43:24.365Z,101049.03
2022-08-28T01:45:54.248Z,101037.69
2022-08-28T01:48:23.291Z,101044.19
2022-08-28T01:50:50.727Z,101047.22
2022-08-28T01:53:20.366Z,101045.88
2022-08-28T01:55:53.156Z,101040.69
2022-08-28T01:58:19.658Z,101044.84
2022-08-28T02:00:46.319Z,101048.38
2022-08-28T02:03:12.847Z,101043.88
2022-08-28T02:05:40.041Z,101050.91
2022-08-28T02:08:07.798Z,101051.91
2022-08-28T02:10:37.283Z,101053.41
2022-08-28T02:13:04.806Z,101054.09
2022-08-28T02:15:32.863Z,101055.91
2022-08-28T02:18:00.123Z,101058.25
2022-08-28T02:20:28.607Z,101056.75
2022-08-28T02:22:57.907Z,101055.25
2022-08-28T02:25:25.469Z,101054.56
2022-08-28T02:27:51.916Z,101058.06
2022-08-28T02:30:18.879Z,101058.44
2022-08-28T02:32:46.255Z,101058.06
2022-08-28T02:35:15.659Z,101057.88
2022-08-28T02:37:44.248Z,101059.53
2022-08-28T02:40:14.317Z,101061.03
2022-08-28T02:42:42.015Z,101062.22
2022-08-28T02:45:11.397Z,101058.50
2022-08-28T02:47:39.926Z,101062.50
2022-08-28T02:50:07.719Z,101049.84
2022-08-28T02:52:37.746Z,101058.69
2022-08-28T02:55:06.488Z,101058.50
2022-08-28T02:57:33.026Z,101062.50
2022-08-28T02:59:59.831Z,101062.00
2022-08-28T03:02:26.392Z,101062.66
2022-08-28T03:04:53.455Z,101052.16
2022-08-28T03:07:22.028Z,101056.50
2022-08-28T03:09:49.782Z,101064.16
2022-08-28T03:12:17.096Z,101061.47
2022-08-28T03:14:43.819Z,101056.16
2022-08-28T03:17:10.274Z,101055.13
2022-08-28T03:19:36.772Z,101053.34
2022-08-28T03:22:03.322Z,101060.50
2022-08-28T03:24:29.758Z,101058.50
2022-08-28T03:26:56.222Z,101060.13
2022-08-28T03:29:23.073Z,101064.41
2022-08-28T03:31:49.492Z,101060.41
2022-08-28T03:34:15.999Z,101061.06
2022-08-28T03:36:42.430Z,101066.72
2022-08-28T03:39:08.862Z,101060.59
2022-08-28T03:41:35.296Z,101070.09
2022-08-28T03:44:02.623Z,101069.13
2022-08-28T03:46:32.911Z,101066.38
2022-08-28T03:49:01.384Z,101071.75
2022-08-28T03:51:30.569Z,101069.41
2022-08-28T03:54:01.678Z,101072.88
2022-08-28T03:56:29.451Z,101073.06
2022-08-28T03:58:58.727Z,101074.75
2022-08-28T04:01:25.707Z,101072.56
2022-08-28T04:03:52.569Z,101074.41
2022-08-28T04:06:20.075Z,101072.56
2022-08-28T04:08:47.507Z,101078.38
2022-08-28T04:11:13.936Z,101082.94
2022-08-28T04:13:41.675Z,101089.31
2022-08-28T04:16:11.251Z,101081.47
2022-08-28T04:18:42.418Z,101094.97
2022-08-28T04:21:18.209Z,101087.28
2022-08-28T04:23:45.883Z,101091.41
2022-08-28T04:26:15.703Z,101090.63
2022-08-28T04:28:42.305Z,101103.09
2022-08-28T04:31:08.901Z,101102.88
2022-08-28T04:33:36.316Z,101109.03
2022-08-28T04:36:11.635Z,101106.59
2022-08-28T04:38:43.551Z,101122.56
2022-08-28T04:41:12.788Z,101121.84
2022-08-28T04:43:39.758Z,101127.94
2022-08-28T04:46:08.421Z,101128.44
2022-08-28T04:48:35.682Z,101124.88
2022-08-28T04:51:05.640Z,101123.00
2022-08-28T04:53:32.945Z,101121.53
2022-08-28T04:56:00.597Z,101117.22
2022-08-28T04:58:27.203Z,101127.94
2022-08-28T05:00:54.331Z,101130.28
2022-08-28T05:03:21.107Z,101131.66
2022-08-28T05:05:54.382Z,101137.94
2022-08-28T05:08:23.854Z,101133.81
2022-08-28T05:10:50.935Z,101130.00
2022-08-28T05:13:18.451Z,101126.00
2022-08-28T05:15:48.267Z,101130.09
2022-08-28T05:18:16.996Z,101137.41
2022-08-28T05:20:45.686Z,101129.41
2022-08-28T05:23:14.443Z,101134.44
2022-08-28T05:25:45.848Z,101139.56
2022-08-28T05:28:13.611Z,101135.72
2022-08-28T05:30:41.899Z,101137.72
2022-08-28T05:33:10.527Z,101140.63
2022-08-28T05:35:39.042Z,101139.06
2022-08-28T05:38:06.444Z,101140.22
2022-08-28T05:40:33.680Z,101138.00
2022-08-28T05:43:00.435Z,101143.34
2022-08-28T05:45:26.884Z,101149.75
2022-08-28T05:47:54.012Z,101151.94
2022-08-28T05:50:20.471Z,101140.00
2022-08-28T05:52:47.447Z,101141.28
2022-08-28T05:55:14.070Z,101155.41
2022-08-28T05:57:41.067Z,101153.31
2022-08-28T06:00:12.683Z,101153.50
2022-08-28T06:02:40.484Z,101163.03
2022-08-28T06:05:07.218Z,101158.72
2022-08-28T06:07:34.010Z,101150.03
2022-08-28T06:10:00.851Z,101154.66
2022-08-28T06:12:27.263Z,101151.69
2022-08-28T06:14:54.213Z,101159.78
2022-08-28T06:17:23.765Z,101152.00
2022-08-28T06:19:50.448Z,101152.00
2022-08-28T06:22:17.099Z,101156.50
2022-08-28T06:24:43.809Z,101156.41
2022-08-28T06:27:10.343Z,101157.22
2022-08-28T06:29:36.784Z,101156.97
2022-08-28T06:32:06.828Z,101155.09
2022-08-28T06:34:33.754Z,101164.00
2022-08-28T06:37:00.678Z,101161.38
2022-08-28T06:39:27.122Z,101164.81
2022-08-28T06:41:53.715Z,101168.47
2022-08-28T06:44:21.562Z,101162.00
2022-08-28T06:46:50.503Z,101176.00
2022-08-28T06:49:17.003Z,101180.44
2022-08-28T06:51:43.734Z,101186.16
2022-08-28T06:54:10.320Z,101185.78
2022-08-28T06:56:36.947Z,101186.22
2022-08-28T06:59:04.053Z,101198.59
2022-08-28T07:01:34.328Z,101190.53
2022-08-28T07:04:04.046Z,101202.44
2022-08-28T07:06:34.040Z,101201.84
2022-08-28T07:09:00.819Z,101195.31
2022-08-28T07:11:30.238Z,101196.03
2022-08-28T07:13:57.865Z,101207.16
2022-08-28T07:16:30.346Z,101213.41
2022-08-28T07:18:57.683Z,101209.31
2022-08-28T07:21:24.249Z,101211.34
2022-08-28T07:23:50.744Z,101214.81
2022-08-28T07:26:20.367Z,101207.75
2022-08-28T07:28:47.276Z,101212.59
2022-08-28T07:31:16.697Z,101215.28
2022-08-28T07:33:44.313Z,101218.88
2022-08-28T07:36:19.083Z,101229.47
2022-08-28T07:38:59.230Z,101229.16
2022-08-28T07:41:29.061Z,101229.69
2022-08-28T07:44:14.341Z,101229.25
2022-08-28T07:46:41.855Z,101227.56
2022-08-28T07:49:08.932Z,101233.94
2022-08-28T07:51:36.126Z,101237.44
2022-08-28T07:54:04.046Z,101237.53
2022-08-28T07:56:31.463Z,101245.97
2022-08-28T07:59:00.131Z,101242.84
2022-08-28T08:01:28.893Z,101246.44
2022-08-28T08:04:01.314Z,101245.97
2022-08-28T08:06:33.072Z,101251.66
2022-08-28T08:09:01.977Z,101250.19
2022-08-28T08:11:32.220Z,101254.78
2022-08-28T08:14:05.478Z,101253.00
2022-08-28T08:16:39.060Z,101259.47
2022-08-28T08:19:05.999Z,101260.53
2022-08-28T08:21:32.699Z,101263.97
2022-08-28T08:23:59.243Z,101260.81
2022-08-28T08:26:28.184Z,101261.59
2022-08-28T08:28:56.128Z,101255.31
2022-08-28T08:31:26.638Z,101262.72
2022-08-28T08:33:56.609Z,101258.09
2022-08-28T08:36:25.087Z,101262.69
2022-08-28T08:38:59.449Z,101264.13
2022-08-28T08:41:34.395Z,101271.50
2022-08-28T08:44:17.035Z,101265.91
2022-08-28T08:46:56.158Z,101263.09
2022-08-28T08:49:29.478Z,101255.91
2022-08-28T08:51:58.855Z,101259.56
2022-08-28T08:54:25.386Z,101264.25
2022-08-28T08:56:55.920Z,101259.69
2022-08-28T08:59:26.053Z,101271.97
2022-08-28T09:02:12.188Z,101268.06
2022-08-28T09:04:47.693Z,101261.88
2022-08-28T09:07:21.432Z,101276.81
2022-08-28T09:09:53.168Z,101284.00
2022-08-28T09:12:26.044Z,101285.78
2022-08-28T09:15:23.342Z,101275.25
2022-08-28T09:17:55.267Z,101284.19
2022-08-28T09:20:32.504Z,101281.28
2022-08-28T09:23:00.075Z,101283.63
2022-08-28T09:25:44.805Z,101283.88
2022-08-28T09:28:15.784Z,101280.81
2022-08-28T09:30:44.019Z,101283.53
2022-08-28T09:33:10.447Z,101286.59
2022-08-28T09:35:37.703Z,101281.56
2022-08-28T09:38:19.190Z,101287.03
2022-08-28T09:41:04.048Z,101286.53
2022-08-28T09:43:31.497Z,101300.22
2022-08-28T09:46:04.258Z,101297.38
2022-08-28T09:48:37.970Z,101286.47
2022-08-28T09:51:29.351Z,101300.75
2022-08-28T09:54:36.123Z,101296.22
2022-08-28T09:57:03.590Z,101302.75
2022-08-28T09:59:30.838Z,101298.03
2022-08-28T10:02:14.942Z,101301.97
2022-08-28T10:05:01.035Z,101308.53
2022-08-28T10:07:39.986Z,101308.78
2022-08-28T10:10:20.849Z,101307.81
2022-08-28T10:13:19.280Z,101306.41
2022-08-28T10:16:01.696Z,101309.47
2022-08-28T10:18:44.045Z,101313.19
2022-08-28T10:21:18.012Z,101314.00
2022-08-28T10:24:23.329Z,101312.91
2022-08-28T10:27:15.357Z,101319.75
2022-08-28T10:29:50.541Z,101322.63
2022-08-28T10:32:54.715Z,101319.28
2022-08-28T10:35:55.778Z,101324.09
2022-08-28T10:38:36.431Z,101331.31
2022-08-28T10:41:10.023Z,101320.75
2022-08-28T10:43:44.003Z,101330.28
2022-08-28T10:46:15.009Z,101334.47
2022-08-28T10:48:47.580Z,101337.44
2022-08-28T10:51:34.757Z,101335.44
2022-08-28T10:54:18.883Z,101336.84
2022-08-28T10:56:57.322Z,101334.84
2022-08-28T10:59:27.453Z,101338.22
2022-08-28T11:01:53.942Z,101347.53
2022-08-28T11:04:25.715Z,101346.69
2022-08-28T11:07:00.662Z,101339.38
2022-08-28T11:09:31.619Z,101344.97
2022-08-28T11:12:02.170Z,101344.09
2022-08-28T11:14:34.215Z,101345.03
2022-08-28T11:17:14.418Z,101348.56
2022-08-28T11:19:58.862Z,101352.63
2022-08-28T11:22:49.834Z,101348.75
2022-08-28T11:25:32.775Z,101351.19
2022-08-28T11:28:23.856Z,101352.03
2022-08-28T11:31:05.419Z,101352.00
2022-08-28T11:33:52.515Z,101346.88
2022-08-28T11:36:21.697Z,101351.56
2022-08-28T11:39:00.986Z,101350.91
2022-08-28T11:41:29.080Z,101354.22
2022-08-28T11:44:13.902Z,101357.63
2022-08-28T11:46:49.124Z,101348.19
2022-08-28T11:49:26.111Z,101356.56
2022-08-28T11:51:55.291Z,101346.69
2022-08-28T11:54:46.756Z,101340.69
2022-08-28T11:57:23.936Z,101349.84
2022-08-28T12:00:21.624Z,101359.06
2022-08-28T12:02:53.179Z,101348.75
2022-08-28T12:05:40.051Z,101346.94
2022-08-28T12:08:06.860Z,101344.34
2022-08-28T12:10:33.235Z,101342.88
2022-08-28T12:13:05.018Z,101340.56
2022-08-28T12:15:31.448Z,101347.94
2022-08-28T12:18:05.590Z,101341.69
2022-08-28T12:20:58.606Z,101348.41
2022-08-28T12:23:42.313Z,101340.28
2022-08-28T12:26:21.096Z,101348.16
2022-08-28T12:29:21.689Z,101349.38
2022-08-28T12:32:20.853Z,101343.22
2022-08-28T12:34:51.265Z,101345.06
2022-08-28T12:37:51.006Z,101344.91
2022-08-28T12:40:29.749Z,101346.56
2022-08-28T12:43:00.449Z,101348.91
2022-08-28T12:45:38.389Z,101335.19
2022-08-28T12:48:16.508Z,101342.22
2022-08-28T12:50:43.382Z,101340.91
2022-08-28T12:53:16.975Z,101335.56
2022-08-28T12:55:45.950Z,101336.72
2022-08-28T12:58:27.850Z,101333.03
2022-08-28T13:00:59.501Z,101333.69
2022-08-28T13:03:26.245Z,101335.00
2022-08-28T13:06:03.062Z,101327.88
2022-08-28T13:08:29.697Z,101325.16
2022-08-28T13:10:56.322Z,101316.00
2022-08-28T13:13:32.540Z,101324.25
2022-08-28T13:16:06.583Z,101314.00
2022-08-28T13:19:09.555Z,101307.94
2022-08-28T13:21:48.039Z,101309.88
2022-08-28T13:24:27.577Z,101305.31
2022-08-28T13:27:07.385Z,101314.34
2022-08-28T13:29:35.346Z,101306.28
2022-08-28T13:32:15.973Z,101302.88
2022-08-28T13:34:46.070Z,101296.00
2022-08-28T13:37:40.178Z,101297.97
2022-08-28T13:40:16.013Z,101291.13
2022-08-28T13:42:57.427Z,101291.84
2022-08-28T13:45:24.048Z,101289.19
2022-08-28T13:47:50.473Z,101287.91
2022-08-28T13:50:16.886Z,101295.50
2022-08-28T13:52:43.331Z,101291.69
2022-08-28T13:55:12.279Z,101286.69
2022-08-28T13:57:39.618Z,101280.78
2022-08-28T14:00:06.696Z,101286.91
2022-08-28T14:02:52.705Z,101287.59
2022-08-28T14:05:19.726Z,101278.22
2022-08-28T14:07:46.331Z,101285.09
2022-08-28T14:10:13.058Z,101285.81
2022-08-28T14:12:41.450Z,101280.91
2022-08-28T14:15:07.978Z,101279.00
2022-08-28T14:17:34.511Z,101282.72
2022-08-28T14:20:01.620Z,101275.50
2022-08-28T14:22:28.601Z,101267.28
2022-08-28T14:24:55.051Z,101264.19
2022-08-28T14:27:21.477Z,101265.84
2022-08-28T14:29:49.047Z,101267.56
2022-08-28T14:32:16.021Z,101274.38
2022-08-28T14:34:43.543Z,101269.47
2022-08-28T14:37:09.992Z,101275.56
2022-08-28T14:39:36.428Z,101269.47
2022-08-28T14:42:05.630Z,101259.66
2022-08-28T14:44:39.620Z,101263.91
2022-08-28T14:47:06.059Z,101265.03
2022-08-28T14:49:32.494Z,101268.72
2022-08-28T14:51:58.947Z,101264.59
2022-08-28T14:54:26.271Z,101255.56
2022-08-28T14:56:54.511Z,101259.34
2022-08-28T14:59:25.094Z,101261.09
2022-08-28T15:01:53.027Z,101263.59
2022-08-28T15:04:24.756Z,101259.31
2022-08-28T15:06:56.771Z,101266.16
2022-08-28T15:09:23.231Z,101262.81
2022-08-28T15:11:49.668Z,101264.44
2022-08-28T15:14:16.115Z,101256.19
2022-08-28T15:16:46.745Z,101259.50
2022-08-28T15:19:15.932Z,101251.50
2022-08-28T15:21:46.406Z,101257.19
2022-08-28T15:24:28.693Z,101253.91
2022-08-28T15:26:55.218Z,101246.75
2022-08-28T15:29:21.629Z,101248.53
2022-08-28T15:31:50.484Z,101251.94
2022-08-28T15:34:22.958Z,101249.47
2022-08-28T15:36:54.577Z,101244.53
2022-08-28T15:39:40.355Z,101247.19
2022-08-28T15:42:07.789Z,101253.47
2022-08-28T15:44:34.496Z,101250.72
2022-08-28T15:47:02.414Z,101245.38
2022-08-28T15:49:32.219Z,101246.16
2022-08-28T15:52:02.916Z,101245.59
2022-08-28T15:54:31.809Z,101241.84
2022-08-28T15:56:58.911Z,101249.59
2022-08-28T15:59:25.643Z,101238.31
2022-08-28T16:02:12.665Z,101250.09
2022-08-28T16:04:39.175Z,101249.78
2022-08-28T16:07:05.615Z,101248.31
2022-08-28T16:09:32.023Z,101246.69
2022-08-28T16:11:58.643Z,101248.38
2022-08-28T16:14:25.083Z,101240.00
2022-08-28T16:16:51.558Z,101241.00
2022-08-28T16:19:19.487Z,101243.63
2022-08-28T16:21:46.243Z,101246.38
2022-08-28T16:24:12.654Z,101243.38
2022-08-28T16:26:39.501Z,101255.44
2022-08-28T16:29:06.019Z,101248.31
2022-08-28T16:31:34.320Z,101242.22
2022-08-28T16:34:02.830Z,101247.94
2022-08-28T16:36:30.077Z,101258.34
2022-08-28T16:39:03.868Z,101250.84
2022-08-28T16:41:31.987Z,101245.81
2022-08-28T16:43:58.867Z,101251.53
2022-08-28T16:46:26.804Z,101252.72
2022-08-28T16:48:54.475Z,101252.97
2022-08-28T16:51:21.490Z,101257.38
2022-08-28T16:53:48.313Z,101251.94
2022-08-28T16:56:17.115Z,101255.72
2022-08-28T16:58:44.063Z,101249.19
2022-08-28T17:01:11.971Z,101243.38
2022-08-28T17:03:39.826Z,101252.53
2022-08-28T17:06:26.697Z,101249.78
2022-08-28T17:08:56.941Z,101251.34
2022-08-28T17:11:24.905Z,101251.66
2022-08-28T17:13:51.311Z,101256.06
2022-08-28T17:16:18.793Z,101258.56
2022-08-28T17:18:48.219Z,101249.66
2022-08-28T17:21:37.448Z,101261.53
2022-08-28T17:24:04.229Z,101254.16
2022-08-28T17:26:30.665Z,101259.72
2022-08-28T17:28:57.094Z,101264.59
2022-08-28T17:31:23.757Z,101269.91
2022-08-28T17:33:50.482Z,101273.47
2022-08-28T17:36:32.531Z,101270.13
2022-08-28T17:39:01.543Z,101272.13
2022-08-28T17:41:27.983Z,101274.59
2022-08-28T17:43:54.444Z,101269.50
2022-08-28T17:46:21.014Z,101275.44
2022-08-28T17:48:54.270Z,101275.75
2022-08-28T17:51:42.976Z,101282.47
2022-08-28T17:54:15.358Z,101284.47
2022-08-28T17:56:42.310Z,101273.34
2022-08-28T17:59:10.031Z,101281.91
2022-08-28T18:01:36.519Z,101287.97
2022-08-28T18:04:03.271Z,101292.88
2022-08-28T18:06:29.716Z,101292.88
2022-08-28T18:08:56.355Z,101293.38
2022-08-28T18:11:23.577Z,101295.72
2022-08-28T18:13:50.400Z,101302.00
2022-08-28T18:16:17.786Z,101310.53
2022-08-28T18:18:44.250Z,101313.22
2022-08-28T18:21:11.604Z,101318.94
2022-08-28T18:23:39.634Z,101317.47
2022-08-28T18:26:06.937Z,101327.13
2022-08-28T18:28:33.465Z,101328.66
2022-08-28T18:31:00.856Z,101329.69
2022-08-28T18:33:27.478Z,101323.66
2022-08-28T18:35:54.132Z,101328.19
2022-08-28T18:38:23.149Z,101321.81
2022-08-28T18:40:49.820Z,101328.72
2022-08-28T18:43:20.090Z,101335.53
2022-08-28T18:45:46.988Z,101338.06
2022-08-28T18:48:13.994Z,101340.06
2022-08-28T18:50:45.705Z,101336.06
2022-08-28T18:53:13.716Z,101348.91
2022-08-28T18:55:40.152Z,101349.91
2022-08-28T18:58:06.948Z,101356.75
2022-08-28T19:00:33.737Z,101355.41
2022-08-28T19:03:00.387Z,101349.16
2022-08-28T19:05:27.198Z,101352.31
2022-08-28T19:07:53.839Z,101359.47
2022-08-28T19:10:32.609Z,101362.47
2022-08-28T19:13:01.040Z,101368.13
2022-08-28T19:15:28.259Z,101371.78
2022-08-28T19:17:55.166Z,101360.56
2022-08-28T19:20:22.099Z,101364.44
2022-08-28T19:22:48.800Z,101364.72
2022-08-28T19:25:27.587Z,101372.41
2022-08-28T19:27:56.333Z,101372.69
2022-08-28T19:30:27.110Z,101382.06
2022-08-28T19:32:53.557Z,101379.53
2022-08-28T19:35:20.618Z,101377.31
2022-08-28T19:37:50.888Z,101386.75
2022-08-28T19:40:19.181Z,101388.41
2022-08-28T19:42:45.913Z,101388.81
2022-08-28T19:45:14.853Z,101386.97
2022-08-28T19:47:41.531Z,101398.22
2022-08-28T19:50:10.917Z,101397.22
2022-08-28T19:52:37.994Z,101393.91
2022-08-28T19:55:06.026Z,101399.16
2022-08-28T19:57:33.630Z,101387.88
2022-08-28T20:00:00.084Z,101397.50
2022-08-28T20:02:28.430Z,101401.75
2022-08-28T20:04:55.333Z,101396.63
2022-08-28T20:07:22.013Z,101397.22
2022-08-28T20:09:48.434Z,101403.22
2022-08-28T20:12:15.134Z,101412.00
2022-08-28T20:14:42.693Z,101414.53
2022-08-28T20:17:09.762Z,101414.28
2022-08-28T20:19:36.499Z,101410.28
2022-08-28T20:22:03.959Z,101411.63
2022-08-28T20:24:30.874Z,101415.63
2022-08-28T20:26:57.664Z,101415.19
2022-08-28T20:29:25.152Z,101419.91
2022-08-28T20:31:54.604Z,101420.75
2022-08-28T20:34:22.013Z,101428.50
2022-08-28T20:36:49.142Z,101433.03
2022-08-28T20:39:16.371Z,101428.50
2022-08-28T20:41:44.486Z,101427.69
2022-08-28T20:44:12.980Z,101422.13
2022-08-28T20:46:42.502Z,101425.69
2022-08-28T20:49:13.988Z,101427.28
2022-08-28T20:51:56.250Z,101433.88
2022-08-28T20:54:32.628Z,101427.78
2022-08-28T20:57:02.457Z,101425.47
2022-08-28T20:59:39.319Z,101430.06
2022-08-28T21:02:09.366Z,101431.94
2022-08-28T21:04:37.453Z,101428.72
2022-08-28T21:07:05.887Z,101428.19
2022-08-28T21:09:40.968Z,101434.97
2022-08-28T21:12:19.186Z,101433.78
2022-08-28T21:14:51.454Z,101432.50
2022-08-28T21:17:28.784Z,101443.28
2022-08-28T21:19:57.986Z,101440.84
2022-08-28T21:22:24.470Z,101445.31
2022-08-28T21:24:50.884Z,101436.63
2022-08-28T21:27:18.561Z,101439.00
2022-08-28T21:29:45.849Z,101427.78
2022-08-28T21:32:12.960Z,101435.75
2022-08-28T21:34:39.477Z,101434.06
2022-08-28T21:37:06.355Z,101426.28
2022-08-28T21:39:32.818Z,101432.63
2022-08-28T21:41:59.242Z,101429.16
2022-08-28T21:44:25.677Z,101432.81
2022-08-28T21:46:52.182Z,101427.53
2022-08-28T21:49:18.657Z,101433.84
2022-08-28T21:51:45.079Z,101437.84
2022-08-28T21:54:11.504Z,101443.31
2022-08-28T21:56:37.967Z,101441.63
2022-08-28T21:59:04.439Z,101445.66
2022-08-28T22:01:31.023Z,101445.72
2022-08-28T22:03:57.513Z,101453.38
2022-08-28T22:06:26.265Z,101450.00
2022-08-28T22:08:53.650Z,101452.03
2022-08-28T22:11:25.055Z,101445.56
2022-08-28T22:13:52.258Z,101449.56
2022-08-28T22:16:19.590Z,101453.75
2022-08-28T22:18:46.471Z,101450.09
2022-08-28T22:21:34.254Z,101457.19
2022-08-28T22:24:01.206Z,101455.19
2022-08-28T22:26:27.809Z,101460.00
2022-08-28T22:28:54.730Z,101456.78
2022-08-28T22:31:21.293Z,101461.94
2022-08-28T22:33:47.786Z,101462.81
2022-08-28T22:36:14.346Z,101465.75
2022-08-28T22:38:41.284Z,101457.09
2022-08-28T22:41:16.193Z,101457.09
2022-08-28T22:43:42.625Z,101464.72
2022-08-28T22:46:09.738Z,101451.19
2022-08-28T22:48:36.266Z,101456.59
2022-08-28T22:51:08.210Z,101451.88
2022-08-28T22:53:35.877Z,101464.06
2022-08-28T22:56:02.510Z,101463.50
2022-08-28T22:58:31.534Z,101465.78
2022-08-28T23:01:00.854Z,101465.31
2022-08-28T23:03:27.622Z,101459.34
2022-08-28T23:05:54.173Z,101466.03
2022-08-28T23:08:20.908Z,101469.09
2022-08-28T23:10:59.070Z,101458.41
2022-08-28T23:13:25.910Z,101466.56
2022-08-28T23:15:52.367Z,101466.00
2022-08-28T23:18:18.795Z,101466.28
2022-08-28T23:20:45.239Z,101459.34
2022-08-28T23:23:11.990Z,101459.97
2022-08-28T23:25:38.537Z,101460.00
2022-08-28T23:28:06.619Z,101456.31
2022-08-28T23:30:33.722Z,101449.53
2022-08-28T23:33:00.170Z,101453.25
2022-08-28T23:35:26.612Z,101463.38
2022-08-28T23:37:53.277Z,101467.03
2022-08-28T23:40:21.941Z,101465.66
2022-08-28T23:42:48.821Z,101456.69
2022-08-28T23:45:16.778Z,101452.75
2022-08-28T23:47:43.818Z,101459.00
2022-08-28T23:50:17.704Z,101456.78
2022-08-28T23:52:44.373Z,101460.66
2022-08-28T23:55:11.978Z,101457.31
2022-08-28T23:57:38.642Z,101454.47
